createdAt,value
2023-02-25T00:09:31.081Z,73.40
2023-02-25T00:12:01.435Z,72.40
2023-02-25T00:19:30.575Z,71.60
2023-02-25T00:29:27.180Z,71.10
2023-02-25T00:46:55.537Z,70.80
2023-02-25T01:01:57.961Z,72.00
2023-02-25T01:11:54.069Z,72.60
2023-02-25T01:14:25.226Z,71.70
2023-02-25T01:16:56.265Z,72.20
2023-02-25T01:19:28.852Z,72.10
2023-02-25T01:21:59.267Z,71.70
2023-02-25T01:24:29.809Z,72.00
2023-02-25T01:27:00.746Z,71.60
2023-02-25T01:29:31.450Z,72.00
2023-02-25T01:32:02.276Z,72.20
2023-02-25T01:34:34.813Z,71.70
2023-02-25T01:42:05.762Z,71.70
2023-02-25T01:44:36.595Z,72.00
2023-02-25T01:47:10.306Z,72.40
2023-02-25T01:49:43.091Z,74.40
2023-02-25T01:52:15.986Z,71.90
2023-02-25T01:54:57.103Z,72.40
2023-02-25T01:57:29.728Z,72.40
2023-02-25T02:02:46.738Z,72.00
2023-02-25T02:05:18.218Z,73.20
2023-02-25T02:07:49.693Z,72.90
2023-02-25T02:12:49.803Z,72.60
2023-02-25T02:17:54.448Z,73.90
2023-02-25T02:20:28.152Z,73.50
2023-02-25T02:23:35.547Z,72.70
2023-02-25T02:26:45.092Z,73.10
2023-02-25T02:30:04.093Z,73.20
2023-02-25T02:32:44.596Z,73.30
2023-02-25T02:35:22.658Z,73.10
2023-02-25T02:38:04.412Z,73.40
2023-02-25T02:40:45.404Z,73.70
2023-02-25T02:43:24.630Z,73.50
2023-02-25T02:46:00.712Z,73.20
2023-02-25T02:48:36.024Z,73.40
2023-02-25T02:51:12.184Z,73.50
2023-02-25T02:53:45.995Z,74.40
2023-02-25T02:56:19.793Z,73.80
2023-02-25T02:58:53.140Z,73.50
2023-02-25T03:01:32.388Z,74.10
2023-02-25T03:04:06.196Z,74.10
2023-02-25T03:06:41.375Z,74.10
2023-02-25T03:09:14.566Z,74.30
2023-02-25T03:16:48.592Z,74.20
2023-02-25T03:19:24.953Z,76.90
2023-02-25T03:21:57.263Z,75.50
2023-02-25T03:24:34.039Z,75.00
2023-02-25T03:27:07.279Z,74.50
2023-02-25T03:29:36.539Z,73.60
2023-02-25T03:32:11.264Z,73.60
2023-02-25T03:34:46.184Z,73.80
2023-02-25T03:37:22.351Z,75.20
2023-02-25T03:39:55.728Z,74.10
2023-02-25T03:42:29.946Z,74.20
2023-02-25T03:45:02.670Z,74.40
2023-02-25T03:47:33.183Z,76.30
2023-02-25T03:50:07.465Z,74.40
2023-02-25T03:52:44.477Z,76.00
2023-02-25T04:00:29.036Z,73.80
2023-02-25T04:05:28.686Z,74.40
2023-02-25T04:10:28.221Z,74.90
2023-02-25T04:20:29.831Z,74.60
2023-02-25T04:37:50.562Z,74.00
2023-02-25T04:40:22.808Z,73.90
2023-02-25T04:47:57.875Z,73.70
2023-02-25T04:52:56.204Z,73.60
2023-02-25T04:55:25.085Z,74.10
2023-02-25T05:00:25.298Z,72.70
2023-02-25T05:10:20.860Z,72.00
2023-02-25T05:27:42.522Z,70.90
2023-02-25T05:30:12.120Z,72.90
2023-02-25T05:40:09.801Z,70.30
2023-02-25T05:45:09.700Z,71.60
2023-02-25T05:50:07.088Z,70.00
2023-02-25T06:02:33.643Z,69.80
2023-02-25T06:12:30.834Z,70.40
2023-02-25T06:19:57.326Z,69.50
2023-02-25T06:34:49.762Z,70.00
2023-02-25T06:37:19.450Z,69.30
2023-02-25T06:52:11.512Z,68.60
2023-02-25T06:54:40.964Z,68.60
2023-02-25T07:12:01.562Z,66.60
2023-02-25T07:29:22.359Z,86.60
2023-02-25T07:46:45.517Z,66.00
2023-02-25T08:04:09.127Z,65.60
2023-02-25T08:06:38.917Z,65.30
2023-02-25T08:09:07.709Z,65.20
2023-02-25T08:16:34.974Z,64.60
2023-02-25T08:21:33.803Z,63.90
2023-02-25T08:36:28.892Z,64.10
2023-02-25T08:38:59.540Z,63.90
2023-02-25T08:41:30.786Z,63.80
2023-02-25T08:44:02.298Z,62.60
2023-02-25T08:46:33.481Z,60.60
2023-02-25T08:51:35.197Z,62.50
2023-02-25T08:54:07.950Z,63.40
2023-02-25T09:04:15.260Z,60.80
2023-02-25T09:09:15.451Z,61.10
2023-02-25T09:24:09.377Z,58.70
2023-02-25T09:26:39.154Z,57.40
2023-02-25T09:34:08.663Z,53.40
2023-02-25T09:41:47.862Z,54.60
2023-02-25T09:44:20.704Z,53.70
2023-02-25T09:46:53.238Z,51.90
2023-02-25T09:49:30.249Z,52.10
2023-02-25T09:52:05.860Z,49.90
2023-02-25T09:54:39.590Z,48.40
2023-02-25T09:57:13.154Z,48.10
2023-02-25T10:02:27.984Z,48.40
2023-02-25T10:05:07.872Z,48.80
2023-02-25T10:07:41.827Z,48.90
2023-02-25T10:10:19.117Z,49.70
2023-02-25T10:12:58.075Z,51.10
2023-02-25T10:15:38.408Z,51.00
2023-02-25T10:18:23.742Z,51.00
2023-02-25T10:21:07.712Z,51.10
2023-02-25T10:24:17.221Z,51.30
2023-02-25T10:26:51.982Z,52.20
2023-02-25T10:29:29.392Z,51.40
2023-02-25T10:32:00.565Z,49.70
2023-02-25T10:34:30.968Z,50.00
2023-02-25T10:37:01.298Z,49.90
2023-02-25T10:39:31.309Z,50.40
2023-02-25T10:44:29.748Z,50.40
2023-02-25T10:47:02.936Z,51.90
2023-02-25T10:49:38.137Z,51.60
2023-02-25T10:52:10.461Z,51.60
2023-02-25T10:54:47.702Z,51.40
2023-02-25T10:57:18.921Z,50.40
2023-02-25T10:59:49.511Z,49.40
2023-02-25T11:02:23.849Z,48.70
2023-02-25T11:04:53.354Z,46.80
2023-02-25T11:07:29.247Z,46.70
2023-02-25T11:10:16.229Z,46.20
2023-02-25T11:12:46.142Z,46.10
2023-02-25T11:15:44.257Z,46.30
2023-02-25T11:18:21.614Z,46.60
2023-02-25T11:20:52.715Z,48.00
2023-02-25T11:23:24.876Z,48.30
2023-02-25T11:28:30.639Z,48.90
2023-02-25T11:31:11.286Z,49.20
2023-02-25T11:33:43.925Z,49.40
2023-02-25T11:36:13.449Z,49.30
2023-02-25T11:38:43.140Z,49.10
2023-02-25T11:41:21.593Z,48.90
2023-02-25T11:43:50.954Z,49.40
2023-02-25T11:46:23.982Z,49.20
2023-02-25T11:48:57.044Z,49.30
2023-02-25T11:51:29.084Z,49.40
2023-02-25T11:54:14.140Z,48.60
2023-02-25T11:56:48.566Z,47.70
2023-02-25T11:59:31.461Z,46.90
2023-02-25T12:02:26.411Z,79.30
2023-02-25T12:05:26.784Z,46.40
2023-02-25T12:08:33.171Z,79.90
2023-02-25T12:11:25.822Z,44.00
2023-02-25T12:14:33.738Z,43.00
2023-02-25T12:17:26.834Z,43.20
2023-02-25T12:20:26.826Z,43.10
2023-02-25T12:23:33.812Z,70.30
2023-02-25T12:26:09.685Z,42.60
2023-02-25T12:29:04.064Z,75.10
2023-02-25T12:32:21.210Z,42.50
2023-02-25T12:35:27.483Z,42.30
2023-02-25T12:38:34.154Z,75.20
2023-02-25T12:41:18.925Z,75.30
2023-02-25T12:43:52.555Z,43.70
2023-02-25T12:46:41.009Z,44.50
2023-02-25T12:49:32.364Z,45.10
2023-02-25T12:52:23.187Z,45.50
2023-02-25T12:55:06.490Z,44.80
2023-02-25T12:57:45.767Z,44.50
2023-02-25T13:00:58.638Z,44.60
2023-02-25T13:03:36.236Z,46.60
2023-02-25T13:06:31.101Z,45.90
2023-02-25T13:09:15.560Z,44.20
2023-02-25T13:12:10.921Z,43.60
2023-02-25T13:14:50.877Z,44.10
2023-02-25T13:17:48.881Z,43.50
2023-02-25T13:20:39.245Z,43.30
2023-02-25T13:23:26.651Z,43.30
2023-02-25T13:26:18.694Z,72.30
2023-02-25T13:29:04.082Z,43.40
2023-02-25T13:31:40.034Z,42.70
2023-02-25T13:34:19.567Z,42.80
2023-02-25T13:37:11.612Z,42.90
2023-02-25T13:39:59.954Z,43.10
2023-02-25T13:42:57.103Z,42.80
2023-02-25T13:45:54.998Z,42.40
2023-02-25T13:48:39.159Z,41.90
2023-02-25T13:51:35.763Z,42.00
2023-02-25T13:54:21.275Z,42.20
2023-02-25T13:56:58.777Z,42.10
2023-02-25T13:59:44.988Z,42.80
2023-02-25T14:02:56.231Z,42.20
2023-02-25T14:05:58.830Z,77.50
2023-02-25T14:08:42.346Z,42.20
2023-02-25T14:11:29.666Z,42.90
2023-02-25T14:14:19.464Z,42.50
2023-02-25T14:17:15.159Z,43.10
2023-02-25T14:19:57.175Z,44.10
2023-02-25T14:22:37.223Z,43.90
2023-02-25T14:25:20.156Z,44.60
2023-02-25T14:28:03.281Z,45.50
2023-02-25T14:30:41.444Z,47.30
2023-02-25T14:33:36.061Z,47.30
2023-02-25T14:36:26.780Z,45.60
2023-02-25T14:39:13.677Z,45.70
2023-02-25T14:42:02.943Z,46.40
2023-02-25T14:44:37.054Z,46.20
2023-02-25T14:47:12.301Z,46.40
2023-02-25T14:49:49.073Z,47.10
2023-02-25T14:52:56.392Z,46.90
2023-02-25T14:55:39.103Z,46.70
2023-02-25T14:58:41.051Z,46.80
2023-02-25T15:01:47.407Z,46.80
2023-02-25T15:04:47.881Z,47.50
2023-02-25T15:07:41.525Z,48.00
2023-02-25T15:10:42.300Z,48.30
2023-02-25T15:14:13.803Z,48.40
2023-02-25T15:17:38.997Z,48.10
2023-02-25T15:20:38.276Z,48.00
2023-02-25T15:23:55.651Z,48.20
2023-02-25T15:26:51.632Z,48.40
2023-02-25T15:29:56.943Z,48.00
2023-02-25T15:32:28.819Z,51.40
2023-02-25T15:35:01.809Z,48.00
2023-02-25T15:37:36.095Z,47.40
2023-02-25T15:40:38.002Z,47.10
2023-02-25T15:43:40.448Z,47.90
2023-02-25T15:46:41.606Z,47.20
2023-02-25T15:49:22.773Z,47.60
2023-02-25T15:51:54.322Z,48.40
2023-02-25T15:54:53.939Z,48.00
2023-02-25T15:57:58.173Z,47.90
2023-02-25T16:00:55.917Z,48.30
2023-02-25T16:03:47.552Z,47.90
2023-02-25T16:06:20.445Z,48.60
2023-02-25T16:08:55.055Z,49.20
2023-02-25T16:11:35.536Z,48.70
2023-02-25T16:14:13.117Z,50.80
2023-02-25T16:16:50.849Z,49.30
2023-02-25T16:19:23.918Z,48.80
2023-02-25T16:21:59.992Z,48.90
2023-02-25T16:24:30.922Z,49.00
2023-02-25T16:27:04.409Z,49.30
2023-02-25T16:29:45.997Z,49.40
2023-02-25T16:32:42.262Z,49.50
2023-02-25T16:35:33.358Z,50.50
2023-02-25T16:38:48.099Z,49.80
2023-02-25T16:41:27.801Z,50.20
2023-02-25T16:44:20.195Z,52.20
2023-02-25T16:46:57.709Z,50.70
2023-02-25T16:49:37.834Z,52.40
2023-02-25T16:52:25.697Z,51.90
2023-02-25T16:55:00.976Z,51.40
2023-02-25T17:00:19.595Z,52.50
2023-02-25T17:02:52.808Z,56.00
2023-02-25T17:05:37.751Z,60.80
2023-02-25T17:08:18.539Z,61.70
2023-02-25T17:10:53.559Z,60.10
2023-02-25T17:13:27.347Z,61.10
2023-02-25T17:16:28.455Z,60.90
2023-02-25T17:19:27.810Z,62.50
2023-02-25T17:22:40.888Z,63.50
2023-02-25T17:25:20.112Z,64.00
2023-02-25T17:27:53.995Z,64.60
2023-02-25T17:30:51.094Z,65.00
2023-02-25T17:33:32.244Z,67.70
2023-02-25T17:36:14.930Z,66.00
2023-02-25T17:38:47.428Z,67.60
2023-02-25T17:41:29.139Z,66.40
2023-02-25T17:46:36.278Z,69.30
2023-02-25T17:49:19.064Z,66.30
2023-02-25T17:51:53.246Z,66.90
2023-02-25T17:54:24.518Z,66.40
2023-02-25T17:57:00.800Z,66.60
2023-02-25T17:59:39.624Z,66.50
2023-02-25T18:02:37.031Z,66.40
2023-02-25T18:05:36.383Z,66.40
2023-02-25T18:08:30.763Z,66.50
2023-02-25T18:11:07.206Z,67.80
2023-02-25T18:13:41.046Z,66.40
2023-02-25T18:16:37.599Z,65.80
2023-02-25T18:19:13.761Z,66.40
2023-02-25T18:24:59.148Z,66.40
2023-02-25T18:27:32.841Z,66.30
2023-02-25T18:30:18.602Z,65.70
2023-02-25T18:32:52.729Z,65.70
2023-02-25T18:35:24.487Z,65.80
2023-02-25T18:37:56.255Z,66.20
2023-02-25T18:40:28.926Z,69.00
2023-02-25T18:45:34.979Z,67.20
2023-02-25T18:55:38.988Z,66.90
2023-02-25T19:00:41.389Z,67.10
2023-02-25T19:03:16.089Z,67.10
2023-02-25T19:06:00.957Z,73.30
2023-02-25T19:11:33.872Z,71.70
2023-02-25T19:16:55.390Z,66.60
2023-02-25T19:27:01.737Z,67.70
2023-02-25T19:29:33.468Z,69.20
2023-02-25T19:32:07.643Z,68.20
2023-02-25T19:39:39.069Z,68.90
2023-02-25T19:42:10.381Z,69.70
2023-02-25T19:44:42.385Z,68.30
2023-02-25T19:47:25.208Z,70.80
2023-02-25T19:52:36.246Z,69.10
2023-02-25T20:03:38.346Z,69.10
2023-02-25T20:06:13.587Z,70.50
2023-02-25T20:13:53.840Z,70.10
2023-02-25T20:16:26.770Z,68.20
2023-02-25T20:18:59.030Z,70.60
2023-02-25T20:21:31.785Z,68.60
2023-02-25T20:24:26.390Z,68.20
2023-02-25T20:29:29.520Z,69.80
2023-02-25T20:31:59.609Z,69.10
2023-02-25T20:34:33.934Z,68.60
2023-02-25T20:37:15.313Z,68.10
2023-02-25T20:39:54.781Z,68.30
2023-02-25T20:42:27.957Z,68.60
2023-02-25T20:44:58.163Z,67.30
2023-02-25T20:47:29.319Z,68.10
2023-02-25T20:50:00.760Z,68.60
2023-02-25T20:52:30.856Z,70.00
2023-02-25T20:55:06.823Z,70.50
2023-02-25T21:00:11.376Z,69.10
2023-02-25T21:02:43.034Z,69.20
2023-02-25T21:05:21.203Z,69.50
2023-02-25T21:18:33.682Z,71.90
2023-02-25T21:21:07.981Z,70.50
2023-02-25T21:23:43.291Z,70.40
2023-02-25T21:26:13.325Z,70.40
2023-02-25T21:28:42.391Z,71.30
2023-02-25T21:31:14.867Z,70.80
2023-02-25T21:33:46.566Z,70.90
2023-02-25T21:36:21.719Z,73.40
2023-02-25T21:39:38.297Z,72.20
2023-02-25T21:42:10.656Z,72.90
2023-02-25T21:44:44.880Z,74.10
2023-02-25T21:54:06.458Z,70.70
2023-02-25T21:57:30.211Z,70.60
2023-02-25T22:00:03.109Z,74.20
2023-02-25T22:02:47.654Z,70.80
2023-02-25T22:10:52.754Z,70.30
2023-02-25T22:13:28.034Z,72.90
2023-02-25T22:16:03.066Z,69.70
2023-02-25T22:19:10.422Z,69.40
2023-02-25T22:24:22.247Z,69.40
2023-02-25T22:30:18.097Z,71.10
2023-02-25T22:32:49.249Z,74.80
2023-02-25T22:35:24.178Z,68.60
2023-02-25T22:38:07.923Z,68.20
2023-02-25T22:40:41.540Z,68.30
2023-02-25T22:46:01.125Z,67.50
2023-02-25T22:56:16.572Z,67.20
2023-02-25T22:58:50.714Z,67.50
2023-02-25T23:01:39.459Z,67.20
2023-02-25T23:04:17.971Z,67.70
2023-02-25T23:17:01.146Z,66.60
2023-02-25T23:22:09.585Z,66.40
2023-02-25T23:24:43.834Z,66.30
2023-02-25T23:29:49.635Z,70.60
2023-02-25T23:32:19.275Z,66.30
2023-02-25T23:49:42.189Z,66.30
